Time;durP1;ratioP1;P1;durP2;ratioP2;P2;SDS_P1;SDS_P2;PMS_P1;PMS_P2;Temp;Humidity;BMP_temperature;BMP_pressure;BME280_temperature;BME280_humidity;BME280_pressure;Samples;Min_cycle;Max_cycle;Signal;HPM_P1;HPM_P2
2022/11/04 00:01:14;;;;;;;2.20;0.75;;;;;;;11.37;83.00;98442.53;5040101;28;20037;-92
2022/11/04 00:03:39;;;;;;;1.48;0.52;;;;;;;11.43;82.78;98438.59;5039544;28;20126;-94
2022/11/04 00:06:05;;;;;;;1.83;0.80;;;;;;;11.42;82.40;98453.34;5043564;28;20476;-89
2022/11/04 00:08:33;;;;;;;1.83;0.50;;;;;;;11.45;82.39;98469.13;5041663;28;20036;-90
2022/11/04 00:13:45;;;;;;;4.60;1.33;;;;;;;11.30;83.19;98470.22;5041861;28;20044;-90
2022/11/04 00:19:03;;;;;;;;;;;;;;;11.28;83.19;98470.53;5044376;28;20095;-87
2022/11/04 00:28:41;;;;;;;13.70;2.55;;;;;;;11.24;82.89;98476.88;5043750;28;20076;-90
2022/11/04 00:30:04;;;;;;;2.78;0.68;;;;;;;11.21;82.07;98489.19;5043565;28;20035;-93
2022/11/04 00:35:15;;;;;;;1.98;0.70;;;;;;;11.27;81.51;98501.63;5041641;28;20040;-90
2022/11/04 00:37:42;;;;;;;2.70;1.13;;;;;;;11.13;81.85;98498.06;5040023;28;20037;-90
2022/11/04 00:40:09;;;;;;;1.63;0.68;;;;;;;11.18;81.35;98497.97;5042268;28;20029;-90
2022/11/04 00:42:35;;;;;;;2.75;1.00;;;;;;;11.07;81.21;98498.16;5040448;28;20123;-90
2022/11/04 00:45:00;;;;;;;4.45;0.80;;;;;;;11.02;81.73;98506.44;5041097;28;20109;-91
2022/11/04 00:47:26;;;;;;;3.22;0.75;;;;;;;11.22;81.04;98504.47;5044803;28;20036;-90
2022/11/04 00:49:51;;;;;;;1.45;0.40;;;;;;;11.21;80.74;98498.19;5046745;28;20071;-93
2022/11/04 00:52:17;;;;;;;3.80;0.93;;;;;;;11.05;81.06;98516.75;5042932;28;20032;-94
2022/11/04 00:54:42;;;;;;;1.55;0.73;;;;;;;10.96;81.24;98502.19;5043122;28;20031;-91
2022/11/04 00:57:11;;;;;;;2.38;0.77;;;;;;;10.83;81.38;98518.19;5050894;28;20059;-90
2022/11/04 00:59:37;;;;;;;2.03;0.63;;;;;;;10.89;81.06;98504.47;5045659;28;20029;-89
2022/11/04 01:02:02;;;;;;;1.92;0.85;;;;;;;10.85;81.23;98529.59;5042256;28;20530;-89
2022/11/04 01:04:28;;;;;;;2.75;0.88;;;;;;;10.93;81.18;98519.13;5042493;28;20021;-89
2022/11/04 01:06:53;;;;;;;2.70;0.90;;;;;;;11.03;80.91;98527.13;5041854;28;20025;-89
2022/11/04 01:09:19;;;;;;;2.90;1.00;;;;;;;10.98;81.38;98546.31;5045606;28;20033;-90
2022/11/04 01:11:44;;;;;;;2.65;0.90;;;;;;;10.91;80.64;98551.31;5044048;28;20337;-90
2022/11/04 01:14:10;;;;;;;5.32;1.00;;;;;;;10.81;81.12;98538.66;5041595;28;20032;-89
2022/11/04 01:16:36;;;;;;;2.55;0.90;;;;;;;10.88;81.33;98549.22;5053169;28;20037;-88
2022/11/04 01:19:01;;;;;;;2.53;1.38;;;;;;;10.91;81.36;98554.06;5052673;28;20108;-87
2022/11/04 01:21:27;;;;;;;2.67;1.38;;;;;;;11.04;81.12;98553.31;5052079;28;20122;-87
2022/11/04 01:23:53;;;;;;;3.17;1.27;;;;;;;10.88;81.35;98554.66;5036744;28;20026;-87
2022/11/04 01:26:21;;;;;;;3.08;1.42;;;;;;;10.93;81.49;98552.66;5033333;28;20633;-92
2022/11/04 01:28:47;;;;;;;3.85;1.48;;;;;;;10.92;81.47;98550.22;5033139;28;20038;-92
2022/11/04 01:31:20;;;;;;;3.55;1.92;;;;;;;11.05;81.24;98563.09;5033256;28;20173;-90
2022/11/04 01:33:46;;;;;;;3.40;1.60;;;;;;;10.89;81.62;98578.06;5032901;28;20060;-90
2022/11/04 01:36:11;;;;;;;4.85;1.80;;;;;;;10.94;81.59;98576.06;5033232;28;20201;-91
2022/11/04 01:38:37;;;;;;;5.22;1.73;;;;;;;11.01;81.14;98573.00;5033086;28;20489;-90
2022/11/04 01:41:03;;;;;;;4.60;2.00;;;;;;;11.04;81.57;98585.22;5033323;28;20026;-90
2022/11/04 01:43:49;;;;;;;5.97;2.25;;;;;;;10.72;82.41;98587.59;5044973;28;20032;-90
2022/11/04 01:46:43;;;;;;;4.55;2.10;;;;;;;10.61;83.26;98587.75;5052748;28;20029;-90
2022/11/04 01:49:22;;;;;;;;;;;;;;;10.80;82.40;98575.22;5052186;28;20076;-89
2022/11/04 01:51:49;;;;;;;4.90;2.08;;;;;;;10.77;82.30;98578.53;5051463;28;20366;-89
2022/11/04 01:54:15;;;;;;;5.07;2.90;;;;;;;10.86;82.59;98576.78;5052154;28;20472;-90
2022/11/04 01:56:43;;;;;;;5.50;2.30;;;;;;;10.74;82.86;98588.09;5051684;28;20143;-90
2022/11/04 01:59:16;;;;;;;4.22;2.22;;;;;;;10.72;82.45;98588.41;5052398;28;20091;-90
2022/11/04 02:01:42;;;;;;;17.17;2.92;;;;;;;10.79;82.71;98592.69;5053612;28;20033;-92
2022/11/04 02:04:24;;;;;;;4.40;1.88;;;;;;;10.70;82.84;98595.28;5033922;28;20033;-92
2022/11/04 02:06:51;;;;;;;4.63;2.55;;;;;;;10.70;82.76;98595.28;5032541;28;20041;-90
2022/11/04 02:09:17;;;;;;;4.45;2.25;;;;;;;10.60;83.06;98598.94;5032277;28;20123;-90
2022/11/04 02:14:27;;;;;;;6.18;2.30;;;;;;;10.60;82.78;98604.38;5032270;28;20045;-89
2022/11/04 02:16:58;;;;;;;6.95;2.67;;;;;;;10.64;82.89;98604.63;5032086;28;20029;-90
2022/11/04 02:19:32;;;;;;;5.72;2.35;;;;;;;10.66;82.78;98603.19;5046934;28;20032;-90
2022/11/04 02:22:16;;;;;;;;;;;;;;;10.74;81.98;98609.91;5051495;28;20086;-90
2022/11/04 02:25:00;;;;;;;3.50;1.83;;;;;;;10.66;82.87;98621.50;5051808;28;19927;-90
2022/11/04 02:28:13;;;;;;;4.22;1.35;;;;;;;10.61;82.43;98604.09;5051745;28;20064;-89
2022/11/04 02:30:47;;;;;;;3.40;1.58;;;;;;;10.68;82.10;98600.22;4980809;28;20157;-89
2022/11/04 02:33:21;;;;;;;4.82;1.98;;;;;;;10.55;82.44;98597.09;5032319;28;20445;-89
2022/11/04 02:35:59;;;;;;;5.72;2.10;;;;;;;10.59;82.75;98597.31;5051783;28;20039;-90
2022/11/04 02:38:30;;;;;;;4.32;2.00;;;;;;;10.74;81.57;98588.09;5050565;28;20120;-90
2022/11/04 02:41:26;;;;;;;4.10;1.85;;;;;;;10.56;82.18;98581.53;5050852;28;20064;-92
2022/11/04 02:44:19;;;;;;;5.28;2.33;;;;;;;10.66;82.37;98580.59;5035477;28;20040;-92
2022/11/04 02:46:51;;;;;;;3.47;1.60;;;;;;;10.60;81.94;98582.56;5031107;28;20076;-93
2022/11/04 02:49:22;;;;;;;3.72;1.95;;;;;;;10.53;82.87;98587.59;5045425;28;20047;-92
2022/11/04 02:51:57;;;;;;;4.70;1.67;;;;;;;10.56;82.34;98587.81;5051313;28;20025;-91
2022/11/04 02:54:32;;;;;;;6.55;2.05;;;;;;;10.71;81.27;98589.53;5051054;28;20029;-90
2022/11/04 02:57:00;;;;;;;4.85;2.53;;;;;;;10.79;80.96;98590.78;5051716;28;20045;-89
2022/11/04 02:59:38;;;;;;;5.05;1.73;;;;;;;10.69;80.75;98590.91;5051349;28;20113;-89
2022/11/04 03:02:09;;;;;;;5.68;2.78;;;;;;;10.54;81.75;98595.47;5050343;28;20032;-90
2022/11/04 03:04:40;;;;;;;8.20;3.10;;;;;;;10.62;82.08;98600.25;5051050;28;20048;-90
2022/11/04 03:07:09;;;;;;;7.88;3.25;;;;;;;10.54;81.98;98611.81;5051297;28;20535;-91
2022/11/04 03:09:38;;;;;;;5.10;2.42;;;;;;;10.35;82.32;98598.16;5051529;28;20142;-90
2022/11/04 03:12:09;;;;;;;12.70;2.22;;;;;;;10.42;82.08;98598.59;5050736;28;20028;-87
2022/11/04 03:14:40;;;;;;;7.47;2.88;;;;;;;10.44;81.68;98595.56;5031670;28;20044;-87
2022/11/04 03:17:12;;;;;;;5.18;2.03;;;;;;;10.54;81.36;98600.91;5031546;28;20040;-88
2022/11/04 03:19:52;;;;;;;6.63;1.67;;;;;;;10.56;80.62;98597.88;5048300;28;20519;-88
2022/11/04 03:22:21;;;;;;;6.28;2.10;;;;;;;10.35;81.15;98603.59;5050814;28;20036;-90
2022/11/04 03:24:48;;;;;;;3.50;1.55;;;;;;;10.43;81.29;98599.41;5051490;28;20025;-91
2022/11/04 03:27:19;;;;;;;4.43;1.35;;;;;;;10.43;81.10;98593.97;5051090;28;20029;-92
2022/11/04 03:30:02;;;;;;;5.65;1.45;;;;;;;10.40;81.10;98598.06;5050893;28;20115;-92
2022/11/04 03:32:43;;;;;;;4.10;1.50;;;;;;;10.42;81.13;98609.50;5050743;28;20041;-91
2022/11/04 03:35:11;;;;;;;8.13;1.77;;;;;;;10.34;80.74;98613.69;5050432;28;20309;-90
2022/11/04 03:37:36;;;;;;;3.90;1.33;;;;;;;10.27;81.08;98613.22;5051563;28;20056;-91
2022/11/04 03:40:03;;;;;;;7.30;2.17;;;;;;;10.55;80.47;98615.34;5050560;28;20071;-90
2022/11/04 03:42:31;;;;;;;6.63;2.50;;;;;;;10.53;80.66;98615.66;5051257;28;20281;-87
2022/11/04 03:44:58;;;;;;;4.38;1.13;;;;;;;10.35;80.69;98609.84;5050509;28;20048;-87
2022/11/04 03:47:26;;;;;;;2.88;1.00;;;;;;;10.39;80.26;98616.31;5050802;28;20071;-90
2022/11/04 03:50:15;;;;;;;8.18;1.27;;;;;;;10.25;80.46;98615.44;5050138;28;20504;-91
2022/11/04 03:52:40;;;;;;;9.85;2.53;;;;;;;10.35;80.23;98618.00;5036283;28;20045;-90
2022/11/04 03:55:08;;;;;;;5.17;1.17;;;;;;;10.25;80.21;98615.44;5030261;28;20117;-90
2022/11/04 03:57:44;;;;;;;4.63;1.38;;;;;;;10.24;79.90;98603.72;5030732;28;20322;-90
2022/11/04 04:00:16;;;;;;;3.65;1.42;;;;;;;10.15;80.10;98610.88;5030751;28;20116;-90
2022/11/04 04:03:17;;;;;;;7.10;2.63;;;;;;;10.12;80.24;98617.75;5030461;28;20037;-88
2022/11/04 04:05:57;;;;;;;6.70;1.23;;;;;;;10.19;80.07;98611.16;5030691;28;20033;-89
2022/11/04 04:08:45;;;;;;;8.50;1.70;;;;;;;10.11;80.49;98615.31;5030475;28;20033;-90
2022/11/04 04:11:16;;;;;;;4.72;1.30;;;;;;;10.18;80.26;98632.13;5029446;28;20029;-89
2022/11/04 04:13:50;;;;;;;4.20;1.10;;;;;;;10.16;80.53;98629.69;5030260;28;20118;-88
2022/11/04 04:16:21;;;;;;;4.00;2.20;;;;;;;10.20;80.29;98629.91;5030565;28;20034;-90
2022/11/04 04:18:56;;;;;;;5.55;1.63;;;;;;;10.32;80.02;98634.94;5040930;28;20476;-91
2022/11/04 04:21:29;;;;;;;3.90;1.20;;;;;;;10.39;79.50;98637.34;5054436;28;20029;-88
2022/11/04 04:29:27;;;;;;;3.75;1.23;;;;;;;10.32;79.20;98628.69;5054429;28;20088;-87
2022/11/04 04:31:56;;;;;;;4.40;1.17;;;;;;;10.49;78.52;98620.88;5053433;28;20029;-89
2022/11/04 04:34:28;;;;;;;7.00;1.25;;;;;;;10.44;78.41;98622.81;5053404;28;20060;-90
2022/11/04 04:37:02;;;;;;;3.40;1.33;;;;;;;10.37;78.65;98623.97;5054120;28;20029;-88
2022/11/04 04:45:04;;;;;;;7.35;1.88;;;;;;;10.24;79.37;98632.88;5054108;28;20040;-90
2022/11/04 04:47:44;;;;;;;7.43;1.27;;;;;;;10.30;78.91;98637.16;5053722;28;20037;-90
2022/11/04 04:50:13;;;;;;;3.20;1.42;;;;;;;10.31;78.92;98646.16;5033777;28;20029;-91
2022/11/04 04:52:45;;;;;;;7.60;1.50;;;;;;;10.37;78.84;98656.66;5033512;28;20293;-88
2022/11/04 04:55:11;;;;;;;3.80;0.90;;;;;;;10.27;78.67;98651.38;5033185;28;20109;-88
2022/11/04 04:57:36;;;;;;;8.00;1.55;;;;;;;10.34;78.61;98662.72;5033738;28;20029;-92
2022/11/04 05:00:03;;;;;;;5.07;2.03;;;;;;;10.49;78.00;98664.50;5033450;28;20423;-93
2022/11/04 05:02:29;;;;;;;3.40;1.67;;;;;;;10.31;77.92;98663.31;5033265;28;20040;-91
2022/11/04 05:04:55;;;;;;;4.75;1.60;;;;;;;10.46;77.63;98669.66;5033895;28;20120;-90
2022/11/04 05:07:20;;;;;;;4.28;1.42;;;;;;;10.46;77.60;98664.22;5033924;28;20112;-90
2022/11/04 05:09:46;;;;;;;4.57;1.73;;;;;;;10.47;77.42;98661.22;5033580;28;20523;-90
2022/11/04 05:12:11;;;;;;;9.73;1.17;;;;;;;10.43;77.19;98675.69;5035071;28;20035;-91
2022/11/04 05:14:36;;;;;;;5.28;1.10;;;;;;;10.44;77.30;98672.69;5053026;28;20116;-90
2022/11/04 05:17:02;;;;;;;7.13;1.40;;;;;;;10.18;78.02;98677.59;5053380;28;20029;-88
2022/11/04 05:19:27;;;;;;;9.02;1.85;;;;;;;10.46;77.42;98675.94;5053198;28;20029;-88
2022/11/04 05:21:53;;;;;;;5.13;1.48;;;;;;;10.50;76.77;98681.63;5053192;28;20028;-88
2022/11/04 05:24:18;;;;;;;6.70;2.53;;;;;;;10.09;77.60;98678.22;5033476;28;20467;-88
2022/11/04 05:26:43;;;;;;;6.07;1.10;;;;;;;10.17;77.75;98693.13;5032903;28;20030;-91
2022/11/04 05:29:09;;;;;;;5.53;1.73;;;;;;;10.26;77.61;98690.59;5032748;28;20670;-90
2022/11/04 05:31:35;;;;;;;9.63;1.23;;;;;;;10.42;76.91;98690.41;5032225;28;20279;-90
2022/11/04 05:34:00;;;;;;;5.40;1.75;;;;;;;10.39;76.50;98692.63;5048407;28;20033;-90
2022/11/04 05:36:25;;;;;;;5.73;2.03;;;;;;;10.49;76.68;98690.91;5052905;28;20044;-90
2022/11/04 05:38:54;;;;;;;2.25;1.00;;;;;;;10.39;76.53;98687.16;5052658;28;20807;-90
2022/11/04 05:41:28;;;;;;;4.45;1.35;;;;;;;10.34;76.79;98689.97;5052984;28;20033;-92
2022/11/04 05:43:59;;;;;;;3.53;1.23;;;;;;;10.47;76.42;98698.53;5036854;28;20056;-91
2022/11/04 05:46:25;;;;;;;5.00;1.85;;;;;;;10.43;76.68;98698.31;5033074;28;20342;-87
2022/11/04 05:48:50;;;;;;;20.25;2.22;;;;;;;10.50;75.97;98701.53;5043025;28;20064;-87
2022/11/04 05:51:19;;;;;;;6.00;1.50;;;;;;;10.50;76.04;98704.25;5052584;28;20041;-90
2022/11/04 05:53:45;;;;;;;4.80;1.50;;;;;;;10.48;75.95;98705.59;5052310;28;20508;-90
2022/11/04 05:56:10;;;;;;;4.82;0.90;;;;;;;10.48;76.28;98711.06;5052504;28;20057;-88
2022/11/04 05:58:35;;;;;;;4.30;1.17;;;;;;;10.55;76.21;98714.28;5052599;28;20464;-89
2022/11/04 06:01:24;;;;;;;4.72;1.50;;;;;;;10.57;75.34;98714.81;5052260;28;20479;-88
2022/11/04 06:03:51;;;;;;;14.13;1.77;;;;;;;10.65;75.37;98720.72;5036272;28;20044;-88
2022/11/04 06:06:16;;;;;;;4.78;1.27;;;;;;;10.62;75.33;98722.91;5032302;28;20033;-91
2022/11/04 06:08:41;;;;;;;3.42;0.98;;;;;;;10.55;75.04;98716.19;5031011;28;20100;-90
2022/11/04 06:11:06;;;;;;;4.43;1.37;;;;;;;10.61;75.07;98713.13;5046881;28;20037;-88
2022/11/04 06:13:32;;;;;;;3.83;0.70;;;;;;;10.57;75.23;98714.81;5050879;28;20336;-88
2022/11/04 06:15:57;;;;;;;7.50;2.27;;;;;;;10.60;75.43;98719.66;5051876;28;20269;-89
2022/11/04 06:18:22;;;;;;;3.13;1.10;;;;;;;10.62;75.23;98716.66;5051845;28;20303;-88
2022/11/04 06:20:47;;;;;;;6.93;1.00;;;;;;;10.53;75.40;98718.41;5052540;28;20033;-90
2022/11/04 06:23:13;;;;;;;7.50;1.98;;;;;;;10.59;75.23;98717.25;5040974;28;20263;-90
2022/11/04 06:25:38;;;;;;;3.43;1.50;;;;;;;10.70;74.49;98720.66;5032228;28;20187;-90
2022/11/04 06:28:03;;;;;;;8.33;2.07;;;;;;;10.73;74.64;98722.78;5032004;28;20255;-90
2022/11/04 06:30:28;;;;;;;7.83;1.87;;;;;;;10.58;74.45;98731.94;5032567;28;20723;-90
2022/11/04 06:32:54;;;;;;;4.40;1.10;;;;;;;10.65;74.71;98737.88;5031647;28;20286;-92
2022/11/04 06:35:19;;;;;;;3.92;1.92;;;;;;;10.73;74.34;98737.25;5033084;28;20076;-92
2022/11/04 06:37:44;;;;;;;3.87;1.03;;;;;;;10.71;74.74;98744.09;5032405;28;20099;-92
2022/11/04 06:40:10;;;;;;;15.13;2.03;;;;;;;10.73;74.51;98758.22;5032596;28;20270;-92
2022/11/04 06:42:35;;;;;;;4.93;0.93;;;;;;;10.71;74.29;98752.25;5037378;28;20760;-90
2022/11/04 06:45:00;;;;;;;3.75;1.10;;;;;;;10.73;74.23;98755.50;5052012;28;20033;-90
2022/11/04 06:47:26;;;;;;;6.07;1.38;;;;;;;10.65;74.54;98756.97;5051704;28;20029;-88
2022/11/04 06:49:51;;;;;;;9.30;1.50;;;;;;;10.85;74.22;98761.38;5050889;28;20033;-88
2022/11/04 06:52:16;;;;;;;5.43;1.25;;;;;;;10.74;74.29;98757.94;5050857;28;20082;-90
2022/11/04 06:54:41;;;;;;;5.63;2.03;;;;;;;10.74;74.27;98765.28;5051328;28;20025;-90
2022/11/04 06:57:10;;;;;;;3.97;1.27;;;;;;;10.62;74.72;98761.06;5051072;28;20756;-90
2022/11/04 06:59:35;;;;;;;7.70;1.70;;;;;;;10.72;74.38;98770.22;5050158;28;20345;-91
2022/11/04 07:02:01;;;;;;;13.10;3.17;;;;;;;10.69;74.44;98770.81;5050748;28;20115;-92
2022/11/04 07:04:26;;;;;;;2.67;1.10;;;;;;;10.77;73.70;98783.00;5031697;28;20254;-93
2022/11/04 07:06:51;;;;;;;4.47;1.65;;;;;;;10.87;73.45;98777.44;5031546;28;20026;-89
2022/11/04 07:09:17;;;;;;;5.20;1.38;;;;;;;10.82;73.50;98789.19;5030996;28;20104;-88
2022/11/04 07:11:44;;;;;;;11.80;2.43;;;;;;;10.75;74.26;98786.03;5030424;28;20029;-90
2022/11/04 07:14:10;;;;;;;6.97;1.70;;;;;;;10.83;73.51;98784.56;5048909;28;20286;-90
2022/11/04 07:16:35;;;;;;;5.40;1.75;;;;;;;10.82;73.67;98791.91;5051021;28;20039;-91
2022/11/04 07:19:01;;;;;;;5.72;1.63;;;;;;;10.70;74.21;98791.53;5050961;28;20104;-91
2022/11/04 07:21:26;;;;;;;5.75;1.73;;;;;;;10.78;73.98;98788.16;5051361;28;20459;-91
2022/11/04 07:23:51;;;;;;;9.48;2.53;;;;;;;10.90;73.93;98797.84;5050095;28;20028;-91
2022/11/04 07:26:17;;;;;;;5.35;2.13;;;;;;;10.92;73.96;98801.09;5038411;28;20052;-91
2022/11/04 07:28:42;;;;;;;6.27;2.17;;;;;;;10.97;73.44;98806.50;5030740;28;20032;-91
2022/11/04 07:31:09;;;;;;;10.38;2.25;;;;;;;10.92;73.62;98814.75;5030921;28;20829;-91
2022/11/04 07:33:34;;;;;;;6.53;2.05;;;;;;;10.79;74.01;98819.78;5043962;28;20090;-92
2022/11/04 07:36:09;;;;;;;7.82;2.10;;;;;;;10.70;74.47;98830.50;5051109;28;20460;-89
2022/11/04 07:38:34;;;;;;;5.47;1.35;;;;;;;10.77;74.21;98826.63;5050353;28;20037;-90
2022/11/04 07:41:01;;;;;;;6.35;2.20;;;;;;;10.95;73.42;98828.59;5050709;28;20041;-89
2022/11/04 07:43:26;;;;;;;11.80;2.10;;;;;;;10.95;73.69;98823.16;5049174;28;20049;-89
2022/11/04 07:46:03;;;;;;;6.03;1.80;;;;;;;10.90;74.05;98830.59;5050905;28;20021;-91
2022/11/04 07:48:28;;;;;;;9.35;2.95;;;;;;;10.88;74.15;98830.88;5050260;28;20033;-90
2022/11/04 07:50:56;;;;;;;18.52;2.47;;;;;;;10.80;74.58;98834.22;5050405;28;20091;-89
2022/11/04 07:53:21;;;;;;;4.43;1.42;;;;;;;10.70;74.87;98848.78;5049929;28;20033;-89
2022/11/04 07:55:49;;;;;;;8.10;2.10;;;;;;;10.92;74.11;98844.75;5054316;28;20045;-88
2022/11/04 07:58:15;;;;;;;6.20;1.67;;;;;;;10.89;73.97;98850.75;5040129;28;20206;-88
2022/11/04 08:00:40;;;;;;;5.45;2.28;;;;;;;10.76;74.66;98853.06;5035070;28;20144;-88
2022/11/04 08:03:05;;;;;;;5.20;1.70;;;;;;;10.94;74.52;98848.00;5043602;28;20071;-88
2022/11/04 08:05:30;;;;;;;8.87;2.60;;;;;;;10.86;74.28;98850.22;5054397;28;20284;-89
2022/11/04 08:07:56;;;;;;;4.10;1.65;;;;;;;10.85;74.34;98854.06;5054629;28;20388;-90
2022/11/04 08:10:22;;;;;;;5.20;2.17;;;;;;;11.05;74.29;98854.13;5054467;28;20025;-89
2022/11/04 08:12:47;;;;;;;13.43;2.95;;;;;;;10.96;74.54;98843.06;5046673;28;20175;-91
2022/11/04 08:15:12;;;;;;;7.30;1.48;;;;;;;11.17;73.96;98850.97;5036268;28;20041;-91
2022/11/04 08:17:38;;;;;;;6.85;2.28;;;;;;;11.27;73.61;98850.88;5034833;28;20029;-89
2022/11/04 08:20:04;;;;;;;6.40;3.08;;;;;;;11.32;73.30;98852.72;5054630;28;20045;-89
2022/11/04 08:22:30;;;;;;;3.85;1.83;;;;;;;11.24;72.80;98854.19;5050056;28;20510;-90
2022/11/04 08:24:55;;;;;;;7.22;1.42;;;;;;;11.17;73.17;98851.81;5034967;28;20036;-90
2022/11/04 08:27:21;;;;;;;5.35;1.52;;;;;;;11.26;73.06;98849.25;5034860;28;20136;-90
2022/11/04 08:29:46;;;;;;;4.40;1.75;;;;;;;11.15;73.72;98851.28;5034471;28;20523;-90
2022/11/04 08:32:12;;;;;;;5.57;1.37;;;;;;;11.31;72.86;98846.44;5035984;28;20033;-90
2022/11/04 08:34:37;;;;;;;11.13;1.70;;;;;;;11.16;73.18;98849.38;5054515;28;20644;-91
2022/11/04 08:37:02;;;;;;;6.15;2.25;;;;;;;11.33;73.17;98849.69;5053995;28;20043;-90
2022/11/04 08:39:28;;;;;;;6.60;1.40;;;;;;;11.36;73.33;98850.22;5054188;28;20029;-90
2022/11/04 08:41:54;;;;;;;9.23;1.98;;;;;;;11.47;73.19;98853.63;5054339;28;20048;-90
2022/11/04 08:44:21;;;;;;;5.40;1.30;;;;;;;11.53;72.22;98850.53;5034003;28;20242;-90
2022/11/04 08:46:47;;;;;;;3.50;1.38;;;;;;;11.68;72.22;98859.63;5034049;28;20033;-89
2022/11/04 08:49:12;;;;;;;7.15;1.60;;;;;;;11.73;71.70;98867.75;5047235;28;20028;-89
2022/11/04 08:51:42;;;;;;;4.45;1.13;;;;;;;11.75;72.01;98853.81;5054039;28;20123;-91
2022/11/04 08:54:08;;;;;;;5.00;1.92;;;;;;;11.78;71.97;98864.94;5053269;28;20068;-91
2022/11/04 08:56:36;;;;;;;12.65;3.00;;;;;;;11.85;71.56;98874.69;5053963;28;20064;-90
2022/11/04 08:59:03;;;;;;;3.22;0.80;;;;;;;11.87;71.78;98867.84;5053498;28;20349;-90
2022/11/04 09:01:30;;;;;;;7.18;1.15;;;;;;;11.98;71.68;98867.69;5053803;28;20460;-91
2022/11/04 09:03:55;;;;;;;7.05;1.55;;;;;;;11.97;70.93;98866.88;5052729;28;20037;-90
2022/11/04 09:06:25;;;;;;;6.68;1.65;;;;;;;11.90;71.40;98871.88;5033860;28;20033;-90
2022/11/04 09:08:51;;;;;;;5.28;1.98;;;;;;;11.62;72.47;98864.34;5033406;28;20025;-89
2022/11/04 09:11:17;;;;;;;7.28;2.03;;;;;;;11.91;71.90;98870.78;5033812;28;20026;-91
2022/11/04 09:13:43;;;;;;;6.57;1.25;;;;;;;12.01;72.09;98878.81;5047423;28;20123;-89
2022/11/04 09:16:11;;;;;;;8.07;1.70;;;;;;;12.05;71.08;98884.50;5053711;28;20128;-91
2022/11/04 09:18:36;;;;;;;2.13;1.02;;;;;;;11.93;71.53;98882.22;5052171;28;20044;-90
2022/11/04 09:21:03;;;;;;;6.40;2.42;;;;;;;12.05;71.11;98883.69;5053703;28;20033;-90
2022/11/04 09:23:29;;;;;;;8.68;2.38;;;;;;;12.06;71.15;98877.13;5052905;28;20484;-91
2022/11/04 09:25:56;;;;;;;4.97;1.40;;;;;;;12.10;70.84;98876.22;5053024;28;20039;-88
2022/11/04 09:28:21;;;;;;;3.53;1.45;;;;;;;12.34;70.43;98874.53;5053291;28;20229;-88
2022/11/04 09:30:46;;;;;;;3.83;1.35;;;;;;;12.34;71.10;98891.75;5053507;28;20494;-89
2022/11/04 09:33:12;;;;;;;2.58;1.35;;;;;;;12.33;71.30;98890.09;5052846;28;20067;-89
2022/11/04 09:35:37;;;;;;;3.57;1.13;;;;;;;12.29;70.75;98899.19;5053366;28;20033;-89
2022/11/04 09:38:02;;;;;;;7.73;1.50;;;;;;;12.31;70.79;98900.53;5053084;28;20293;-90
2022/11/04 09:40:28;;;;;;;2.88;1.42;;;;;;;12.33;71.26;98900.22;5053200;28;20274;-91
2022/11/04 09:43:05;;;;;;;6.95;1.77;;;;;;;12.13;71.41;98891.25;5044970;28;20102;-88
2022/11/04 09:45:32;;;;;;;4.90;1.40;;;;;;;12.32;70.60;98898.63;5036081;28;20037;-88
2022/11/04 09:48:03;;;;;;;3.28;1.40;;;;;;;12.37;71.34;98890.31;5036364;28;20044;-90
2022/11/04 09:50:35;;;;;;;16.75;2.45;;;;;;;12.46;70.63;98888.53;5044694;28;20148;-89
2022/11/04 09:53:11;;;;;;;9.30;2.40;;;;;;;12.53;70.50;98876.41;5046600;28;20037;-89
2022/11/04 09:55:56;;;;;;;4.03;1.25;;;;;;;12.52;70.91;98881.06;5049851;28;20053;-90
2022/11/04 09:58:21;;;;;;;5.80;1.75;;;;;;;12.52;70.84;98880.25;5052671;28;20074;-88
2022/11/04 10:01:01;;;;;;;8.98;1.98;;;;;;;12.56;70.35;98886.75;5053623;28;20096;-88
2022/11/04 10:03:49;;;;;;;6.03;1.77;;;;;;;12.47;70.63;98892.06;5039881;28;20037;-88
2022/11/04 10:06:31;;;;;;;9.07;1.48;;;;;;;12.37;71.33;98888.41;5036901;28;20029;-89
2022/11/04 10:09:09;;;;;;;3.58;1.30;;;;;;;12.51;71.76;98895.81;5051827;28;20136;-89
2022/11/04 10:12:05;;;;;;;8.65;1.40;;;;;;;12.61;72.19;98881.16;5050384;28;20055;-90
2022/11/04 10:15:02;;;;;;;6.78;2.13;;;;;;;12.68;72.18;98878.88;5013656;28;20108;-90
2022/11/04 10:17:49;;;;;;;6.32;1.38;;;;;;;12.57;71.95;98874.72;5031611;28;20029;-89
2022/11/04 10:20:36;;;;;;;8.10;2.10;;;;;;;12.54;73.52;98883.50;5042052;28;20487;-89
2022/11/04 10:23:21;;;;;;;5.22;1.30;;;;;;;12.75;72.91;98894.91;5042243;28;20038;-91
2022/11/04 10:25:46;;;;;;;;;;;;;;;13.02;71.96;98906.97;5052300;28;20041;-91
2022/11/04 10:28:16;;;;;;;3.17;1.38;;;;;;;12.89;71.56;98911.34;5051142;28;20015;-90
2022/11/04 10:30:46;;;;;;;4.25;1.17;;;;;;;13.03;71.27;98910.53;5052033;28;20065;-91
2022/11/04 10:33:37;;;;;;;7.22;1.30;;;;;;;13.08;71.46;98908.50;5043973;28;20032;-90
2022/11/04 10:36:08;;;;;;;4.05;1.63;;;;;;;13.01;71.11;98907.28;5050530;28;20029;-88
2022/11/04 10:38:45;;;;;;;7.25;1.45;;;;;;;12.93;70.78;98912.34;5051431;28;20508;-88
2022/11/04 10:41:20;;;;;;;6.28;1.13;;;;;;;12.87;71.22;98907.28;5047158;28;20029;-88
2022/11/04 10:43:46;;;;;;;3.78;1.00;;;;;;;12.77;70.61;98908.28;5045256;28;20445;-89
2022/11/04 10:46:36;;;;;;;17.63;2.20;;;;;;;12.60;70.81;98905.00;5050665;28;20024;-87
2022/11/04 10:49:32;;;;;;;11.48;1.80;;;;;;;12.77;70.96;98902.81;5051682;28;20032;-88
2022/11/04 10:51:58;;;;;;;5.43;1.42;;;;;;;12.80;70.87;98905.75;5039151;28;20063;-88
2022/11/04 10:54:25;;;;;;;4.25;1.17;;;;;;;12.75;70.58;98916.78;5035656;28;20029;-87
2022/11/04 10:56:55;;;;;;;4.35;1.75;;;;;;;12.77;70.14;98916.47;5051288;28;20067;-88
2022/11/04 10:59:25;;;;;;;156.80;20.60;;;;;;;12.98;70.52;98919.63;5049818;28;20495;-87
2022/11/04 11:01:55;;;;;;;5.05;1.80;;;;;;;13.15;69.43;98932.75;5043726;28;20057;-89
2022/11/04 11:04:32;;;;;;;17.83;4.57;;;;;;;13.10;69.58;98930.09;5035803;28;20041;-87
2022/11/04 11:07:00;;;;;;;49.35;3.70;;;;;;;13.37;68.30;98935.88;5031053;28;20059;-88
2022/11/04 11:09:32;;;;;;;9.55;1.80;;;;;;;13.29;67.89;98940.97;5051343;28;20610;-89
2022/11/04 11:12:01;;;;;;;56.30;8.15;;;;;;;13.40;68.60;98941.56;5053517;28;20086;-92
2022/11/04 11:14:26;;;;;;;16.38;2.50;;;;;;;13.48;68.63;98950.19;5039539;28;20026;-92
2022/11/04 11:16:51;;;;;;;12.50;2.63;;;;;;;13.35;68.39;98951.81;5034785;28;20044;-88
2022/11/04 11:19:23;;;;;;;14.30;5.20;;;;;;;13.25;69.08;98950.09;5048048;28;20049;-88
2022/11/04 11:21:52;;;;;;;1225.63;246.35;;;;;;;13.61;67.09;98945.84;5041663;28;20060;-88
2022/11/04 11:24:21;;;;;;;103.45;12.45;;;;;;;13.65;67.03;98942.19;5030235;28;20022;-87
2022/11/04 11:26:51;;;;;;;6.88;1.83;;;;;;;13.75;66.34;98940.38;5029608;28;20041;-90
2022/11/04 11:29:39;;;;;;;5.68;1.30;;;;;;;13.62;66.13;98937.34;5030068;28;20116;-90
2022/11/04 11:32:17;;;;;;;4.30;1.95;;;;;;;13.69;66.52;98944.34;5050139;28;20028;-88
2022/11/04 11:34:46;;;;;;;6.85;2.50;;;;;;;13.69;65.76;98944.34;5046075;28;20415;-88
2022/11/04 11:37:23;;;;;;;5.72;2.38;;;;;;;13.41;66.15;98959.63;5041641;28;20043;-91
2022/11/04 11:39:48;;;;;;;7.15;2.95;;;;;;;13.36;66.86;98951.53;5051005;28;20062;-91
2022/11/04 11:42:15;;;;;;;7.45;1.88;;;;;;;13.37;66.53;98958.63;5051189;28;20029;-93
2022/11/04 11:44:46;;;;;;;5.28;1.77;;;;;;;13.12;68.04;98962.66;5049821;28;20399;-93
2022/11/04 11:47:41;;;;;;;8.82;2.08;;;;;;;13.02;68.36;98958.97;5049419;28;20033;-88
2022/11/04 11:50:12;;;;;;;7.75;1.65;;;;;;;12.96;68.30;98958.25;5030739;28;20025;-88
2022/11/04 11:52:38;;;;;;;3.78;1.02;;;;;;;13.13;67.62;98965.06;5029935;28;20173;-94
2022/11/04 11:55:34;;;;;;;7.20;2.15;;;;;;;12.90;69.09;98962.19;5030009;28;20021;-92
2022/11/04 11:58:18;;;;;;;6.97;2.00;;;;;;;12.78;69.44;98973.59;5031036;28;20042;-84
2022/11/04 12:00:49;;;;;;;8.03;1.57;;;;;;;12.77;69.30;98972.00;5044785;28;20592;-85
2022/11/04 12:03:29;;;;;;;8.15;1.38;;;;;;;12.79;70.16;98971.69;5042383;28;20025;-84
2022/11/04 12:06:14;;;;;;;5.05;1.90;;;;;;;12.79;70.27;98971.69;5040835;28;20026;-89
2022/11/04 12:08:55;;;;;;;6.05;0.93;;;;;;;12.68;69.94;98971.03;5043945;28;20119;-90
2022/11/04 12:11:25;;;;;;;6.18;2.17;;;;;;;12.77;70.28;98976.63;5047732;28;20032;-89
2022/11/04 12:13:55;;;;;;;6.78;1.98;;;;;;;12.64;70.44;98975.47;5042436;28;20034;-90
2022/11/04 12:16:45;;;;;;;6.38;1.90;;;;;;;12.54;71.05;98971.81;5048668;28;20045;-94